createdAt,value
2023-02-25T00:01:08.958Z,0.57
2023-02-25T00:03:41.633Z,0.40
2023-02-25T00:06:14.516Z,0.40
2023-02-25T00:08:46.568Z,0.53
2023-02-25T00:11:19.752Z,0.50
2023-02-25T00:13:51.577Z,0.57
2023-02-25T00:16:25.207Z,0.70
2023-02-25T00:18:58.132Z,0.40
2023-02-25T00:21:29.944Z,0.10
2023-02-25T00:24:15.299Z,0.40
2023-02-25T00:26:47.940Z,0.60
2023-02-25T00:29:19.612Z,1.00
2023-02-25T00:31:51.501Z,0.67
2023-02-25T00:34:23.368Z,0.77
2023-02-25T00:36:55.107Z,0.60
2023-02-25T00:39:41.890Z,0.73
2023-02-25T00:42:18.346Z,0.53
2023-02-25T00:44:51.065Z,0.77
2023-02-25T00:47:22.788Z,1.10
2023-02-25T00:49:54.513Z,0.90
2023-02-25T00:52:26.248Z,0.90
2023-02-25T00:54:57.949Z,0.93
2023-02-25T00:57:29.827Z,1.00
2023-02-25T01:00:01.761Z,1.33
2023-02-25T01:02:33.505Z,1.27
2023-02-25T01:05:05.515Z,1.57
2023-02-25T01:07:38.145Z,1.13
2023-02-25T01:10:11.005Z,1.30
2023-02-25T01:12:42.726Z,1.37
2023-02-25T01:15:14.540Z,1.40
2023-02-25T01:17:46.240Z,1.43
2023-02-25T01:20:19.904Z,2.10
2023-02-25T01:22:51.657Z,1.73
2023-02-25T01:25:25.445Z,1.97
2023-02-25T01:27:57.623Z,1.53
2023-02-25T01:30:29.370Z,1.87
2023-02-25T01:33:01.337Z,2.10
2023-02-25T01:35:36.028Z,1.93
2023-02-25T01:38:07.815Z,2.07
2023-02-25T01:40:39.538Z,2.37
2023-02-25T01:43:19.002Z,2.07
2023-02-25T01:45:54.199Z,2.27
2023-02-25T01:48:30.895Z,1.97
2023-02-25T01:51:09.225Z,2.17
2023-02-25T01:53:44.215Z,2.07
2023-02-25T01:56:20.869Z,2.20
2023-02-25T01:58:53.683Z,2.43
2023-02-25T02:01:28.184Z,1.43
2023-02-25T02:04:04.061Z,2.07
2023-02-25T02:06:44.443Z,1.40
2023-02-25T02:09:20.461Z,1.77
2023-02-25T02:11:52.353Z,1.80
2023-02-25T02:14:29.810Z,1.43
2023-02-25T02:17:13.484Z,1.50
2023-02-25T02:19:48.303Z,1.90
2023-02-25T02:22:29.244Z,1.43
2023-02-25T02:25:30.447Z,1.77
2023-02-25T02:28:11.062Z,1.40
2023-02-25T02:31:20.519Z,1.97
2023-02-25T02:34:26.634Z,1.10
2023-02-25T02:37:19.026Z,1.40
2023-02-25T02:40:15.778Z,1.27
2023-02-25T02:43:12.229Z,1.73
2023-02-25T02:45:50.750Z,1.30
2023-02-25T02:48:31.234Z,1.40
2023-02-25T02:51:11.336Z,1.60
2023-02-25T02:53:52.517Z,1.27
2023-02-25T02:56:26.910Z,1.83
2023-02-25T02:59:05.819Z,1.90
2023-02-25T03:01:44.247Z,1.83
2023-02-25T03:04:22.531Z,2.00
2023-02-25T03:07:02.902Z,1.77
2023-02-25T03:09:46.773Z,1.77
2023-02-25T03:12:19.724Z,1.93
2023-02-25T03:14:51.494Z,1.50
2023-02-25T03:17:30.144Z,1.47
2023-02-25T03:20:20.956Z,1.57
2023-02-25T03:22:56.559Z,1.53
2023-02-25T03:25:33.160Z,1.87
2023-02-25T03:28:18.158Z,1.67
2023-02-25T03:31:14.311Z,1.53
2023-02-25T03:33:56.871Z,0.93
2023-02-25T03:36:33.703Z,1.20
2023-02-25T03:39:11.163Z,0.77
2023-02-25T03:41:47.622Z,1.20
2023-02-25T03:44:23.819Z,0.90
2023-02-25T03:46:58.001Z,0.70
2023-02-25T03:50:04.921Z,0.80
2023-02-25T03:52:38.826Z,1.37
2023-02-25T03:55:18.065Z,1.07
2023-02-25T03:57:51.804Z,0.63
2023-02-25T04:00:26.251Z,1.10
2023-02-25T04:02:58.418Z,0.80
2023-02-25T04:05:30.198Z,1.47
2023-02-25T04:08:02.344Z,0.77
2023-02-25T04:10:37.846Z,0.80
2023-02-25T04:13:11.597Z,0.83
2023-02-25T04:15:43.956Z,1.37
2023-02-25T04:18:16.161Z,0.83
2023-02-25T04:20:48.355Z,1.20
2023-02-25T04:23:20.178Z,1.00
2023-02-25T04:25:52.180Z,1.17
2023-02-25T04:28:23.907Z,1.40
2023-02-25T04:30:55.795Z,0.50
2023-02-25T04:33:27.629Z,0.90
2023-02-25T04:35:59.348Z,0.80
2023-02-25T04:38:31.063Z,0.93
2023-02-25T04:41:02.808Z,1.03
2023-02-25T04:43:34.576Z,0.97
2023-02-25T04:46:06.480Z,0.83
2023-02-25T04:48:39.504Z,1.50
2023-02-25T04:51:11.304Z,1.47
2023-02-25T04:53:43.172Z,0.97
2023-02-25T04:56:15.354Z,0.83
2023-02-25T04:58:47.232Z,1.20
2023-02-25T05:01:18.986Z,0.90
2023-02-25T05:03:56.806Z,0.90
2023-02-25T05:06:29.172Z,1.00
2023-02-25T05:09:00.895Z,1.27
2023-02-25T05:11:32.866Z,0.90
2023-02-25T05:14:04.683Z,1.40
2023-02-25T05:16:36.630Z,1.30
2023-02-25T05:19:08.404Z,1.30
2023-02-25T05:21:40.107Z,1.37
2023-02-25T05:24:12.495Z,1.07
2023-02-25T05:26:44.850Z,1.30
2023-02-25T05:29:17.344Z,1.03
2023-02-25T05:31:51.622Z,1.00
2023-02-25T05:34:23.527Z,1.50
2023-02-25T05:36:55.236Z,0.97
2023-02-25T05:39:27.040Z,0.90
2023-02-25T05:41:58.789Z,1.10
2023-02-25T05:44:30.586Z,1.13
2023-02-25T05:47:02.366Z,1.17
2023-02-25T05:49:34.390Z,0.90
2023-02-25T05:52:06.135Z,1.10
2023-02-25T05:54:38.095Z,1.00
2023-02-25T05:57:10.207Z,1.20
2023-02-25T05:59:41.951Z,1.00
2023-02-25T06:02:13.758Z,1.17
2023-02-25T06:04:45.506Z,1.13
2023-02-25T06:07:17.201Z,1.20
2023-02-25T06:09:48.931Z,1.43
2023-02-25T06:12:20.646Z,1.10
2023-02-25T06:14:52.436Z,1.00
2023-02-25T06:17:24.689Z,1.53
2023-02-25T06:19:56.452Z,0.70
2023-02-25T06:22:28.228Z,1.07
2023-02-25T06:24:59.967Z,0.90
2023-02-25T06:27:31.719Z,1.00
2023-02-25T06:30:04.460Z,0.70
2023-02-25T06:32:36.566Z,0.93
2023-02-25T06:35:08.847Z,1.00
2023-02-25T06:37:41.428Z,1.07
2023-02-25T06:40:14.315Z,1.00
2023-02-25T06:42:46.059Z,1.20
2023-02-25T06:45:17.983Z,1.07
2023-02-25T06:47:49.836Z,1.50
2023-02-25T06:50:21.640Z,0.70
2023-02-25T06:52:53.481Z,2.20
2023-02-25T06:55:25.678Z,1.17
2023-02-25T06:57:57.474Z,1.07
2023-02-25T07:00:29.277Z,0.80
2023-02-25T07:03:03.145Z,1.03
2023-02-25T07:05:34.956Z,1.37
2023-02-25T07:08:06.962Z,0.80
2023-02-25T07:10:40.538Z,0.90
2023-02-25T07:13:13.037Z,1.00
2023-02-25T07:15:44.848Z,0.80
2023-02-25T07:18:16.611Z,1.03
2023-02-25T07:20:48.329Z,0.77
2023-02-25T07:23:20.027Z,1.23
2023-02-25T07:25:51.820Z,0.67
2023-02-25T07:28:23.596Z,1.13
2023-02-25T07:30:55.420Z,0.60
2023-02-25T07:33:28.754Z,1.13
2023-02-25T07:36:00.487Z,0.63
2023-02-25T07:38:32.234Z,0.87
2023-02-25T07:41:09.047Z,0.67
2023-02-25T07:43:41.305Z,0.83
2023-02-25T07:46:13.472Z,0.57
2023-02-25T07:48:45.293Z,1.03
2023-02-25T07:51:23.423Z,0.97
2023-02-25T07:53:57.469Z,0.70
2023-02-25T07:56:30.389Z,0.77
2023-02-25T07:59:02.206Z,1.27
2023-02-25T08:01:34.891Z,0.47
2023-02-25T08:04:07.169Z,0.60
2023-02-25T08:06:40.749Z,0.60
2023-02-25T08:09:12.616Z,1.00
2023-02-25T08:11:45.430Z,1.07
2023-02-25T08:14:17.143Z,0.63
2023-02-25T08:16:50.636Z,0.67
2023-02-25T08:19:22.583Z,1.00
2023-02-25T08:21:54.920Z,1.10
2023-02-25T08:24:26.747Z,0.90
2023-02-25T08:26:58.723Z,0.90
2023-02-25T08:29:30.441Z,0.80
2023-02-25T08:32:02.547Z,0.70
2023-02-25T08:34:35.095Z,1.00
2023-02-25T08:37:11.067Z,0.73
2023-02-25T08:39:42.802Z,1.00
2023-02-25T08:42:18.904Z,0.83
2023-02-25T08:44:50.943Z,0.93
2023-02-25T08:47:22.845Z,0.87
2023-02-25T08:49:54.554Z,0.97
2023-02-25T08:52:26.367Z,0.70
2023-02-25T08:54:58.089Z,1.07
2023-02-25T08:57:30.310Z,0.30
2023-02-25T09:00:02.647Z,1.07
2023-02-25T09:02:36.087Z,1.13
2023-02-25T09:05:08.514Z,1.23
2023-02-25T09:07:40.321Z,1.30
2023-02-25T09:10:13.751Z,0.73
2023-02-25T09:12:46.471Z,0.97
2023-02-25T09:15:18.288Z,0.73
2023-02-25T09:17:53.070Z,1.13
2023-02-25T09:20:26.078Z,0.90
2023-02-25T09:22:59.619Z,0.90
2023-02-25T09:25:49.931Z,0.80
2023-02-25T09:28:23.641Z,0.80
2023-02-25T09:30:57.961Z,0.80
2023-02-25T09:36:22.175Z,1.03
2023-02-25T09:38:56.561Z,0.83
2023-02-25T09:41:33.750Z,1.73
2023-02-25T09:44:19.347Z,0.97
2023-02-25T09:47:04.359Z,1.07
2023-02-25T09:49:53.689Z,1.83
2023-02-25T09:52:37.406Z,1.30
2023-02-25T09:55:22.575Z,1.20
2023-02-25T09:58:19.935Z,1.10
2023-02-25T10:01:07.926Z,1.07
2023-02-25T10:04:13.527Z,0.97
2023-02-25T10:06:50.188Z,1.20
2023-02-25T10:09:39.979Z,1.20
2023-02-25T10:12:29.575Z,0.73
2023-02-25T10:15:26.457Z,0.80
2023-02-25T10:18:13.834Z,0.83
2023-02-25T10:21:01.277Z,1.23
2023-02-25T10:23:35.443Z,1.10
2023-02-25T10:26:17.934Z,0.80
2023-02-25T10:28:58.225Z,1.27
2023-02-25T10:31:30.853Z,1.07
2023-02-25T10:34:23.054Z,1.13
2023-02-25T10:36:59.869Z,1.13
2023-02-25T10:39:31.603Z,1.10
2023-02-25T10:42:03.554Z,1.00
2023-02-25T10:44:35.641Z,1.30
2023-02-25T10:47:13.460Z,1.00
2023-02-25T10:50:12.926Z,0.90
2023-02-25T10:53:17.861Z,0.80
2023-02-25T10:55:54.731Z,0.80
2023-02-25T10:58:29.358Z,1.00
2023-02-25T11:01:06.986Z,0.83
2023-02-25T11:03:47.422Z,1.27
2023-02-25T11:06:26.058Z,1.20
2023-02-25T11:09:00.196Z,1.30
2023-02-25T11:11:35.900Z,0.70
2023-02-25T11:14:15.512Z,1.07
2023-02-25T11:16:47.236Z,1.03
2023-02-25T11:19:26.435Z,0.90
2023-02-25T11:22:00.434Z,0.80
2023-02-25T11:24:37.655Z,1.20
2023-02-25T11:27:33.259Z,0.83
2023-02-25T11:30:13.239Z,0.80
2023-02-25T11:32:54.931Z,1.07
2023-02-25T11:35:35.690Z,0.60
2023-02-25T11:38:25.519Z,1.03
2023-02-25T11:40:57.302Z,0.73
2023-02-25T11:43:39.831Z,1.00
2023-02-25T11:46:28.078Z,0.77
2023-02-25T11:49:18.689Z,0.90
2023-02-25T11:52:35.882Z,0.87
2023-02-25T11:55:19.388Z,1.83
2023-02-25T11:58:03.500Z,1.40
2023-02-25T12:00:50.139Z,0.90
2023-02-25T12:03:37.423Z,0.57
2023-02-25T12:06:23.772Z,0.80
2023-02-25T12:09:27.127Z,1.10
2023-02-25T12:12:13.779Z,1.07
2023-02-25T12:15:16.261Z,1.00
2023-02-25T12:18:26.407Z,0.60
2023-02-25T12:21:23.115Z,0.60
2023-02-25T12:24:13.246Z,1.10
2023-02-25T12:27:23.893Z,1.00
2023-02-25T12:30:21.788Z,1.07
2023-02-25T12:33:18.114Z,1.00
2023-02-25T12:36:03.741Z,0.77
2023-02-25T12:39:23.462Z,0.67
2023-02-25T12:42:34.455Z,0.87
2023-02-25T12:45:48.425Z,1.10
2023-02-25T12:48:53.655Z,1.10
2023-02-25T12:51:39.978Z,0.70
2023-02-25T12:54:29.130Z,0.67
2023-02-25T12:57:07.029Z,1.17
2023-02-25T12:59:58.163Z,0.90
2023-02-25T13:02:44.543Z,0.60
2023-02-25T13:05:16.221Z,0.60
2023-02-25T13:08:00.645Z,0.87
2023-02-25T13:11:05.898Z,0.50
2023-02-25T13:13:57.641Z,0.70
2023-02-25T13:16:41.034Z,0.73
2023-02-25T13:19:49.843Z,0.50
2023-02-25T13:22:39.421Z,0.83
2023-02-25T13:25:26.509Z,0.87
2023-02-25T13:28:16.781Z,0.60
2023-02-25T13:31:01.167Z,0.60
2023-02-25T13:33:51.275Z,0.67
2023-02-25T13:37:00.058Z,0.60
2023-02-25T13:40:01.392Z,0.50
2023-02-25T13:42:58.673Z,1.20
2023-02-25T13:45:54.697Z,0.50
2023-02-25T13:48:45.666Z,0.70
2023-02-25T13:51:32.310Z,0.70
2023-02-25T13:54:41.650Z,0.50
2023-02-25T13:57:35.378Z,0.30
2023-02-25T14:00:35.221Z,0.10
2023-02-25T14:03:18.716Z,0.10
2023-02-25T14:05:50.376Z,0.20
2023-02-25T14:09:06.612Z,0.37
2023-02-25T14:11:57.749Z,0.27
2023-02-25T14:14:47.410Z,0.37
2023-02-25T14:17:28.221Z,0.60
2023-02-25T14:20:15.564Z,0.30
2023-02-25T14:23:20.633Z,0.40
2023-02-25T14:26:15.606Z,0.33
2023-02-25T14:29:09.027Z,0.57
2023-02-25T14:32:08.702Z,0.23
2023-02-25T14:34:46.414Z,0.57
2023-02-25T14:37:44.520Z,0.40
2023-02-25T14:40:30.067Z,0.60
2023-02-25T14:43:14.704Z,0.40
2023-02-25T14:45:56.443Z,0.83
2023-02-25T14:48:50.475Z,0.90
2023-02-25T14:51:47.156Z,0.90
2023-02-25T14:55:07.215Z,0.43
2023-02-25T14:57:42.001Z,0.67
2023-02-25T15:00:46.799Z,0.43
2023-02-25T15:03:45.133Z,0.20
2023-02-25T15:06:48.003Z,0.20
2023-02-25T15:09:29.776Z,0.23
2023-02-25T15:12:04.483Z,0.30
2023-02-25T15:14:56.566Z,0.20
2023-02-25T15:17:48.568Z,0.57
2023-02-25T15:20:38.795Z,0.80
2023-02-25T15:23:20.740Z,0.60
2023-02-25T15:26:21.490Z,0.50
2023-02-25T15:28:54.943Z,0.33
2023-02-25T15:31:29.933Z,0.53
2023-02-25T15:34:23.499Z,0.10
2023-02-25T15:37:20.113Z,0.10
2023-02-25T15:39:56.469Z,0.40
2023-02-25T15:43:09.974Z,0.50
2023-02-25T15:46:08.116Z,0.30
2023-02-25T15:48:42.082Z,0.40
2023-02-25T15:51:39.497Z,0.30
2023-02-25T15:54:44.039Z,0.40
2023-02-25T15:57:34.058Z,0.60
2023-02-25T16:00:44.665Z,0.83
2023-02-25T16:03:31.272Z,0.43
2023-02-25T16:06:21.648Z,0.23
2023-02-25T16:08:56.372Z,0.60
2023-02-25T16:11:38.251Z,1.60
2023-02-25T16:14:24.559Z,0.40
2023-02-25T16:17:03.692Z,0.60
2023-02-25T16:19:39.396Z,0.40
2023-02-25T16:22:17.948Z,0.40
2023-02-25T16:24:52.042Z,0.30
2023-02-25T16:27:53.534Z,0.40
2023-02-25T16:30:34.126Z,0.47
2023-02-25T16:33:22.775Z,0.57
2023-02-25T16:36:14.405Z,0.60
2023-02-25T16:39:11.119Z,0.60
2023-02-25T16:41:43.207Z,0.30
2023-02-25T16:44:26.527Z,0.50
2023-02-25T16:46:58.431Z,0.60
2023-02-25T16:49:37.176Z,0.73
2023-02-25T16:52:17.096Z,0.43
2023-02-25T16:54:56.668Z,0.90
2023-02-25T16:57:28.412Z,0.60
2023-02-25T17:00:16.458Z,1.30
2023-02-25T17:02:50.968Z,2.20
2023-02-25T17:05:33.417Z,1.13
2023-02-25T17:08:14.281Z,0.50
2023-02-25T17:10:53.120Z,0.90
2023-02-25T17:13:31.758Z,1.00
2023-02-25T17:16:06.090Z,1.37
2023-02-25T17:18:46.122Z,1.73
2023-02-25T17:21:29.472Z,2.10
2023-02-25T17:24:05.368Z,1.73
2023-02-25T17:26:44.775Z,2.00
2023-02-25T17:29:17.840Z,0.70
2023-02-25T17:31:54.687Z,0.50
2023-02-25T17:34:31.447Z,0.53
2023-02-25T17:37:06.565Z,0.33
2023-02-25T17:39:39.744Z,0.40
2023-02-25T17:42:31.542Z,1.33
2023-02-25T17:45:26.977Z,4.67
2023-02-25T17:47:58.754Z,4.60
2023-02-25T17:50:32.631Z,3.17
2023-02-25T17:53:05.303Z,5.50
2023-02-25T17:55:37.063Z,2.93
2023-02-25T17:58:23.078Z,4.63
2023-02-25T18:01:01.679Z,4.70
2023-02-25T18:03:47.298Z,2.93
2023-02-25T18:06:43.674Z,1.30
2023-02-25T18:09:38.144Z,0.67
2023-02-25T18:12:23.627Z,0.60
2023-02-25T18:15:04.710Z,0.73
2023-02-25T18:17:41.118Z,1.60
2023-02-25T18:20:42.710Z,0.87
2023-02-25T18:23:14.394Z,1.13
2023-02-25T18:25:51.759Z,0.97
2023-02-25T18:28:23.594Z,1.13
2023-02-25T18:30:55.391Z,1.17
2023-02-25T18:33:27.200Z,0.90
2023-02-25T18:35:59.303Z,0.97
2023-02-25T18:38:32.270Z,0.80
2023-02-25T18:41:07.964Z,1.40
2023-02-25T18:43:41.950Z,1.37
2023-02-25T18:46:13.816Z,0.77
2023-02-25T18:48:45.741Z,1.03
2023-02-25T18:51:18.054Z,0.83
2023-02-25T18:53:49.792Z,0.90
2023-02-25T18:56:21.531Z,0.80
2023-02-25T18:58:57.439Z,0.43
2023-02-25T19:01:32.931Z,0.40
2023-02-25T19:04:04.798Z,0.77
2023-02-25T19:06:36.944Z,0.40
2023-02-25T19:09:08.684Z,0.50
2023-02-25T19:11:40.937Z,0.97
2023-02-25T19:14:17.637Z,0.40
2023-02-25T19:16:49.371Z,0.70
2023-02-25T19:19:21.145Z,0.60
2023-02-25T19:21:52.860Z,0.50
2023-02-25T19:24:24.609Z,0.50
2023-02-25T19:26:59.338Z,0.57
2023-02-25T19:29:31.122Z,0.40
2023-02-25T19:32:02.923Z,0.40
2023-02-25T19:34:34.750Z,0.20
2023-02-25T19:37:06.463Z,0.37
2023-02-25T19:39:40.139Z,0.47
2023-02-25T19:42:12.960Z,0.57
2023-02-25T19:44:44.685Z,0.47
2023-02-25T19:47:16.380Z,0.80
2023-02-25T19:49:48.378Z,0.30
2023-02-25T19:52:20.170Z,0.40
2023-02-25T19:54:51.919Z,0.60
2023-02-25T19:57:23.663Z,0.57
2023-02-25T19:59:55.441Z,0.63
2023-02-25T20:02:27.163Z,0.50
2023-02-25T20:04:58.916Z,0.53
2023-02-25T20:07:31.757Z,0.77
2023-02-25T20:10:04.824Z,0.20
2023-02-25T20:12:38.178Z,0.90
2023-02-25T20:15:11.019Z,0.73
2023-02-25T20:17:44.691Z,0.43
2023-02-25T20:20:17.012Z,0.47
2023-02-25T20:22:48.770Z,0.50
2023-02-25T20:25:20.842Z,0.20
2023-02-25T20:27:52.613Z,0.20
2023-02-25T20:30:24.497Z,0.40
2023-02-25T20:32:56.260Z,0.40
2023-02-25T20:35:28.810Z,0.50
2023-02-25T20:38:13.925Z,0.50
2023-02-25T20:40:45.734Z,0.30
2023-02-25T20:43:17.704Z,0.40
2023-02-25T20:45:49.669Z,0.37
2023-02-25T20:48:32.789Z,0.27
2023-02-25T20:51:04.833Z,0.87
2023-02-25T20:53:36.778Z,0.40
2023-02-25T20:56:16.306Z,0.40
2023-02-25T20:58:48.060Z,0.50
2023-02-25T21:01:19.943Z,0.47
2023-02-25T21:03:51.822Z,0.50
2023-02-25T21:06:26.182Z,0.47
2023-02-25T21:08:58.438Z,0.57
2023-02-25T21:11:30.247Z,0.80
2023-02-25T21:14:02.072Z,0.43
2023-02-25T21:16:33.892Z,1.23
2023-02-25T21:19:06.990Z,0.73
2023-02-25T21:21:38.826Z,0.23
2023-02-25T21:24:12.350Z,0.47
2023-02-25T21:26:44.526Z,0.67
2023-02-25T21:29:16.363Z,0.63
2023-02-25T21:31:48.840Z,0.60
2023-02-25T21:34:20.890Z,0.60
2023-02-25T21:36:52.694Z,0.60
2023-02-25T21:39:25.813Z,0.60
2023-02-25T21:41:57.601Z,0.40
2023-02-25T21:44:29.321Z,0.57
2023-02-25T21:47:01.115Z,0.33
2023-02-25T21:49:32.927Z,0.73
2023-02-25T21:52:05.078Z,0.40
2023-02-25T21:54:36.836Z,0.33
2023-02-25T21:57:08.564Z,0.53
2023-02-25T21:59:40.296Z,0.60
2023-02-25T22:02:12.022Z,0.30
2023-02-25T22:04:47.251Z,0.17
2023-02-25T22:07:19.099Z,0.67
2023-02-25T22:09:50.794Z,0.50
2023-02-25T22:12:22.521Z,0.27
2023-02-25T22:14:54.261Z,0.50
2023-02-25T22:17:26.095Z,0.33
2023-02-25T22:19:58.537Z,0.17
2023-02-25T22:22:30.293Z,0.27
2023-02-25T22:25:04.417Z,0.20
2023-02-25T22:27:36.158Z,0.20
2023-02-25T22:30:08.801Z,0.50
2023-02-25T22:32:40.514Z,0.17
2023-02-25T22:35:12.257Z,0.10
2023-02-25T22:37:44.032Z,0.37
2023-02-25T22:40:15.770Z,0.20
2023-02-25T22:42:47.556Z,0.40
2023-02-25T22:45:19.301Z,0.13
2023-02-25T22:47:51.013Z,0.27
2023-02-25T22:50:23.142Z,0.30
2023-02-25T22:52:54.954Z,0.53
2023-02-25T22:55:26.746Z,0.20
2023-02-25T22:57:58.466Z,0.53
2023-02-25T23:00:46.157Z,0.23
2023-02-25T23:03:17.871Z,0.40
2023-02-25T23:05:50.281Z,0.30
2023-02-25T23:08:24.034Z,0.57
2023-02-25T23:10:55.843Z,0.13
2023-02-25T23:13:27.636Z,0.50
2023-02-25T23:16:02.228Z,0.30
2023-02-25T23:18:34.025Z,0.43
2023-02-25T23:21:09.118Z,0.20
2023-02-25T23:23:42.377Z,0.20
2023-02-25T23:26:16.555Z,0.30
2023-02-25T23:28:49.190Z,0.50
2023-02-25T23:31:22.849Z,0.27
2023-02-25T23:33:56.123Z,0.50
2023-02-25T23:36:28.406Z,0.30
2023-02-25T23:39:01.336Z,0.07
2023-02-25T23:41:34.985Z,0.20
2023-02-25T23:44:11.427Z,0.40
2023-02-25T23:46:44.012Z,0.20
2023-02-25T23:49:17.068Z,0.57
2023-02-25T23:51:48.948Z,0.43
2023-02-25T23:54:22.019Z,0.40
2023-02-25T23:56:53.807Z,0.10
2023-02-25T23:59:25.665Z,0.20
